Time;durP1;ratioP1;P1;durP2;ratioP2;P2;SDS_P1;SDS_P2;PMS_P1;PMS_P2;Temp;Humidity;BMP_temperature;BMP_pressure;BME280_temperature;BME280_humidity;BME280_pressure;Samples;Min_cycle;Max_cycle;Signal;HPM_P1;HPM_P2
2021/09/10 00:01:55;;;;;;;14.13;9.15;;;;;;;17.62;93.91;100003.81;8600546;34;20189;-73
2021/09/10 00:07:00;;;;;;;14.75;8.93;;;;;;;17.61;93.70;100009.44;8600641;34;20149;-73
2021/09/10 00:12:03;;;;;;;13.57;9.23;;;;;;;17.59;93.49;100015.03;8601190;34;20192;-73
2021/09/10 00:17:06;;;;;;;13.23;9.07;;;;;;;17.58;93.17;100001.63;8599662;34;20211;-72
2021/09/10 00:22:11;;;;;;;13.57;10.13;;;;;;;17.62;94.26;100003.81;8600260;34;20213;-73
2021/09/10 00:27:14;;;;;;;15.00;9.35;;;;;;;17.65;93.74;100008.88;8599667;34;20192;-73
2021/09/10 00:32:17;;;;;;;14.13;10.05;;;;;;;17.61;93.91;100004.84;8600025;34;20462;-73
2021/09/10 00:37:21;;;;;;;15.45;10.00;;;;;;;17.59;93.99;100014.19;8599368;34;20425;-73
2021/09/10 00:42:24;;;;;;;14.70;9.13;;;;;;;17.56;93.74;100009.97;8600277;34;20193;-73
2021/09/10 00:47:28;;;;;;;10.18;8.43;;;;;;;17.43;92.98;100001.56;8599083;34;20207;-73
2021/09/10 00:52:32;;;;;;;12.88;8.60;;;;;;;17.34;93.41;99998.06;8599937;34;20195;-73
2021/09/10 00:57:35;;;;;;;14.07;10.35;;;;;;;17.36;93.30;100009.59;8598315;34;20188;-73
2021/09/10 01:02:39;;;;;;;15.35;9.07;;;;;;;17.45;93.83;100013.94;8605479;34;20785;-73
2021/09/10 01:07:47;;;;;;;11.90;8.75;;;;;;;17.48;93.30;100012.75;8608596;34;20227;-73
2021/09/10 01:12:51;;;;;;;16.70;9.75;;;;;;;17.48;93.26;100016.28;8608773;34;21642;-73
2021/09/10 01:17:55;;;;;;;15.43;9.13;;;;;;;17.41;93.05;100014.47;8608978;34;21083;-73
2021/09/10 01:23:00;;;;;;;14.30;8.57;;;;;;;17.42;93.10;100018.88;8608243;34;20718;-73
2021/09/10 01:28:05;;;;;;;12.98;8.60;;;;;;;17.53;93.57;100020.34;8607915;34;21554;-73
2021/09/10 01:33:10;;;;;;;13.88;9.40;;;;;;;17.66;93.95;100023.31;8608711;34;21635;-74
2021/09/10 01:38:13;;;;;;;13.98;10.02;;;;;;;17.74;93.78;100023.25;8608471;34;20642;-74
2021/09/10 01:43:17;;;;;;;15.77;10.70;;;;;;;17.85;93.64;100035.56;8607985;34;20181;-73
2021/09/10 01:48:20;;;;;;;16.67;10.18;;;;;;;17.85;93.44;100036.44;8608453;34;20211;-73
2021/09/10 01:53:31;;;;;;;15.60;10.23;;;;;;;17.79;93.44;100033.59;8608016;34;20870;-74
2021/09/10 01:58:37;;;;;;;14.75;9.95;;;;;;;17.78;93.59;100027.31;8607477;34;20249;-73
2021/09/10 02:03:40;;;;;;;15.27;10.18;;;;;;;17.80;93.50;100025.28;8609247;34;20185;-73
2021/09/10 02:08:43;;;;;;;16.08;11.23;;;;;;;17.82;93.24;100033.22;8608292;34;20166;-73
2021/09/10 02:13:48;;;;;;;15.90;10.25;;;;;;;17.85;93.61;100035.56;8603479;34;20181;-73
2021/09/10 02:18:51;;;;;;;15.38;10.77;;;;;;;17.90;93.54;100039.44;8602679;34;20242;-73
2021/09/10 02:23:54;;;;;;;17.80;11.40;;;;;;;17.89;93.59;100036.94;8603098;34;20199;-73
2021/09/10 02:28:58;;;;;;;16.17;10.57;;;;;;;17.85;93.18;100039.16;8602399;34;20197;-73
2021/09/10 02:34:01;;;;;;;16.13;10.40;;;;;;;17.82;93.59;100039.50;8601822;34;20262;-73
2021/09/10 02:39:07;;;;;;;19.60;10.68;;;;;;;17.69;92.39;100042.00;8567889;34;20180;-74
2021/09/10 02:44:12;;;;;;;14.52;10.80;;;;;;;17.67;92.96;100044.88;8602150;34;20150;-73
2021/09/10 02:49:15;;;;;;;13.27;9.55;;;;;;;17.71;92.80;100045.34;8602174;34;20185;-73
2021/09/10 02:54:18;;;;;;;14.05;10.00;;;;;;;17.80;93.38;100037.97;8602533;34;20185;-73
2021/09/10 02:59:22;;;;;;;14.88;10.77;;;;;;;17.79;92.17;100049.88;8567047;34;20192;-73
2021/09/10 03:04:25;;;;;;;15.38;11.35;;;;;;;17.66;92.39;100048.63;8601375;34;20420;-74
2021/09/10 03:09:28;;;;;;;18.48;11.15;;;;;;;17.73;93.00;100043.31;8602295;34;20573;-73
2021/09/10 03:14:32;;;;;;;16.75;11.15;;;;;;;17.81;92.93;100045.13;8601859;34;22002;-73
2021/09/10 03:19:35;;;;;;;15.02;11.20;;;;;;;17.95;93.21;100032.63;8602519;34;20299;-73
2021/09/10 03:24:40;;;;;;;15.73;11.85;;;;;;;18.07;93.25;100039.34;8600716;34;20613;-73
2021/09/10 03:29:44;;;;;;;16.42;11.70;;;;;;;17.99;92.87;100036.69;8600871;34;20197;-73
2021/09/10 03:34:47;;;;;;;18.33;11.13;;;;;;;17.87;92.61;100033.53;8600569;34;22376;-73
2021/09/10 03:39:50;;;;;;;15.00;11.20;;;;;;;17.84;92.80;100018.44;8600754;34;20448;-71
2021/09/10 03:44:55;;;;;;;16.52;10.75;;;;;;;17.84;92.90;100031.19;8600185;34;20177;-73
2021/09/10 03:49:58;;;;;;;15.80;11.02;;;;;;;17.85;93.01;100025.59;8601371;34;20189;-73
2021/09/10 03:55:01;;;;;;;17.60;11.57;;;;;;;17.80;91.90;100025.28;8576470;34;20310;-73
2021/09/10 04:00:08;;;;;;;14.90;11.43;;;;;;;17.69;92.10;100026.53;8600537;34;20272;-73
2021/09/10 04:05:15;;;;;;;20.10;12.15;;;;;;;17.61;91.55;100032.00;8600099;34;20260;-73
2021/09/10 04:10:18;;;;;;;17.85;11.52;;;;;;;17.64;92.07;100033.53;8600271;34;20192;-73
2021/09/10 04:15:25;;;;;;;14.80;11.93;;;;;;;17.64;91.63;100038.97;8600102;34;20439;-72
2021/09/10 04:20:28;;;;;;;18.10;12.77;;;;;;;17.51;91.48;100036.81;8599870;34;20335;-73
2021/09/10 04:25:31;;;;;;;17.73;11.90;;;;;;;17.36;91.20;100042.16;8599694;34;20708;-73
2021/09/10 04:30:35;;;;;;;18.27;12.95;;;;;;;17.41;91.33;100037.03;8599655;34;20276;-72
2021/09/10 04:35:38;;;;;;;17.92;12.15;;;;;;;17.52;90.76;100034.94;8600781;34;20180;-72
2021/09/10 04:40:41;;;;;;;17.90;12.55;;;;;;;17.54;90.46;100032.91;8601571;34;21429;-72
2021/09/10 04:45:46;;;;;;;23.05;13.68;;;;;;;17.53;90.65;100033.94;8600399;34;20303;-73
2021/09/10 04:50:49;;;;;;;16.02;11.70;;;;;;;17.55;90.39;100026.44;8576548;34;20187;-72
2021/09/10 04:55:52;;;;;;;17.48;12.18;;;;;;;17.62;90.31;100036.41;8600080;34;20285;-72
2021/09/10 05:00:56;;;;;;;20.83;12.55;;;;;;;17.61;90.05;100044.75;8600996;34;20262;-72
2021/09/10 05:05:59;;;;;;;18.65;11.95;;;;;;;17.58;89.84;100040.53;8599951;34;20184;-72
2021/09/10 05:11:02;;;;;;;17.27;11.70;;;;;;;17.73;89.67;100046.03;8600793;34;20207;-72
2021/09/10 05:16:07;;;;;;;17.35;11.63;;;;;;;17.73;89.23;100050.63;8600076;34;22012;-72
2021/09/10 05:21:10;;;;;;;17.75;12.25;;;;;;;17.75;89.17;100065.72;8600370;34;20275;-72
2021/09/10 05:26:13;;;;;;;20.00;12.75;;;;;;;17.79;88.81;100069.75;8599417;34;20216;-72
2021/09/10 05:31:18;;;;;;;18.98;13.35;;;;;;;17.87;88.69;100066.97;8599752;34;20150;-72
2021/09/10 05:36:21;;;;;;;21.65;13.50;;;;;;;17.92;88.41;100072.72;8598633;34;20682;-72
2021/09/10 05:41:24;;;;;;;19.20;12.88;;;;;;;18.14;88.68;100076.50;8600072;34;20700;-72
2021/09/10 05:46:29;;;;;;;18.08;12.18;;;;;;;18.16;88.15;100084.50;8600301;34;20259;-72
2021/09/10 05:51:32;;;;;;;19.30;12.45;;;;;;;18.28;88.31;100095.78;8604748;34;20356;-72
2021/09/10 05:56:35;;;;;;;18.27;12.15;;;;;;;18.25;87.15;100096.97;8603945;34;21003;-72
2021/09/10 06:01:39;;;;;;;17.30;12.27;;;;;;;18.28;86.93;100102.06;8604420;34;21031;-72
2021/09/10 06:06:43;;;;;;;16.50;11.35;;;;;;;18.33;86.39;100099.66;8603954;34;20193;-72
2021/09/10 06:11:46;;;;;;;16.73;10.82;;;;;;;18.35;85.80;100103.03;8604878;34;20441;-72
2021/09/10 06:16:51;;;;;;;15.20;10.25;;;;;;;18.56;85.55;100102.31;8605146;34;20732;-71
2021/09/10 06:21:54;;;;;;;13.93;9.95;;;;;;;18.65;84.96;100110.41;8605481;34;20189;-72
2021/09/10 06:26:57;;;;;;;14.20;9.73;;;;;;;18.64;84.10;100115.03;8603774;34;20188;-70
2021/09/10 06:32:01;;;;;;;14.20;10.00;;;;;;;18.92;84.50;100125.34;8579630;34;20177;-71
2021/09/10 06:37:04;;;;;;;11.60;9.60;;;;;;;19.06;83.02;100127.25;8567933;34;20181;-71
2021/09/10 06:42:07;;;;;;;14.30;10.48;;;;;;;19.30;82.80;100133.44;8603644;34;20165;-71
2021/09/10 06:47:12;;;;;;;12.55;9.30;;;;;;;19.49;81.09;100124.69;8603266;34;20158;-71
2021/09/10 06:52:15;;;;;;;13.55;9.98;;;;;;;19.89;80.09;100128.81;8603575;34;20458;-71
2021/09/10 06:57:18;;;;;;;16.33;10.38;;;;;;;19.93;76.77;100139.34;8604234;34;20177;-72
2021/09/10 07:02:23;;;;;;;11.88;9.35;;;;;;;19.81;77.20;100139.00;8605179;34;21677;-71
2021/09/10 07:07:26;;;;;;;13.20;9.90;;;;;;;19.99;78.59;100139.41;8603127;34;20305;-71
2021/09/10 07:12:29;;;;;;;14.98;10.07;;;;;;;20.15;80.00;100140.22;8603491;34;20149;-71
2021/09/10 07:17:34;;;;;;;14.85;11.10;;;;;;;20.13;77.78;100134.97;8560571;34;20264;-71
2021/09/10 07:22:37;;;;;;;15.23;9.82;;;;;;;20.32;77.49;100139.81;8546879;34;20198;-71
2021/09/10 07:27:40;;;;;;;14.05;10.93;;;;;;;20.39;77.05;100147.22;8546011;34;20177;-72
2021/09/10 07:32:45;;;;;;;15.30;10.90;;;;;;;20.45;78.18;100146.44;8547969;34;20189;-72
2021/09/10 07:37:48;;;;;;;14.15;9.80;;;;;;;20.47;76.95;100147.09;8545754;34;20221;-72
2021/09/10 07:42:51;;;;;;;13.30;10.55;;;;;;;20.50;75.70;100152.16;8546250;34;20161;-72
2021/09/10 07:47:56;;;;;;;13.85;9.75;;;;;;;20.34;74.32;100164.16;8545296;34;21666;-72
2021/09/10 07:52:59;;;;;;;14.13;10.30;;;;;;;20.46;74.41;100168.06;8546039;34;20293;-71
2021/09/10 07:58:02;;;;;;;13.48;10.05;;;;;;;20.68;75.76;100174.38;8544258;34;20220;-71
2021/09/10 08:03:06;;;;;;;14.88;10.55;;;;;;;20.64;75.32;100174.94;8546129;34;20190;-72
2021/09/10 08:08:10;;;;;;;14.45;10.82;;;;;;;20.33;75.53;100176.94;8545550;34;20196;-71
2021/09/10 08:13:13;;;;;;;14.77;10.77;;;;;;;20.23;74.78;100191.91;8545441;34;20288;-71
2021/09/10 08:18:17;;;;;;;16.00;11.05;;;;;;;19.89;77.22;100196.94;8545107;34;20181;-72
2021/09/10 08:23:20;;;;;;;15.50;11.35;;;;;;;19.81;77.46;100197.06;8545476;34;20241;-72
2021/09/10 08:28:23;;;;;;;13.32;10.07;;;;;;;19.78;76.22;100200.16;8545201;34;20200;-72
2021/09/10 08:33:28;;;;;;;18.42;10.43;;;;;;;19.63;76.11;100202.88;8545291;34;20170;-72
2021/09/10 08:38:32;;;;;;;16.52;10.25;;;;;;;19.92;76.49;100212.09;8544701;34;20718;-71
2021/09/10 08:43:36;;;;;;;14.25;10.30;;;;;;;20.36;75.73;100219.38;8545363;34;20687;-72
2021/09/10 08:48:44;;;;;;;14.45;10.88;;;;;;;20.73;73.85;100217.44;8544574;34;20268;-73
2021/09/10 08:53:47;;;;;;;16.15;10.82;;;;;;;20.71;72.35;100219.53;8544544;34;20829;-71
2021/09/10 08:58:50;;;;;;;14.60;10.20;;;;;;;20.69;73.02;100225.16;8543899;34;20579;-71
2021/09/10 09:04:04;;;;;;;14.20;10.40;;;;;;;20.89;72.26;100225.34;8545032;34;21779;-71
2021/09/10 09:09:07;;;;;;;13.70;9.60;;;;;;;21.76;70.98;100223.34;8545194;34;20236;-72
2021/09/10 09:14:10;;;;;;;15.90;10.15;;;;;;;22.20;67.60;100220.16;8544094;34;20200;-72
2021/09/10 09:19:21;;;;;;;14.35;10.40;;;;;;;21.79;67.08;100217.47;8544503;34;20191;-71
2021/09/10 09:24:24;;;;;;;15.65;10.15;;;;;;;21.91;68.34;100224.03;8547461;34;20695;-71
2021/09/10 09:29:27;;;;;;;15.10;11.45;;;;;;;22.53;66.70;100222.19;8549003;34;20220;-71
2021/09/10 09:34:45;;;;;;;17.15;11.65;;;;;;;22.77;64.71;100216.13;8548973;34;20244;-71
2021/09/10 09:39:53;;;;;;;14.98;10.98;;;;;;;23.60;62.72;100217.59;8550247;34;20147;-71
2021/09/10 09:45:13;;;;;;;15.93;11.45;;;;;;;23.30;62.95;100211.75;8549813;34;20135;-71
2021/09/10 09:50:20;;;;;;;15.60;11.80;;;;;;;23.76;61.50;100219.03;8549755;34;20251;-72
2021/09/10 09:55:24;;;;;;;15.32;11.35;;;;;;;24.04;60.82;100219.59;8548237;34;20190;-71
2021/09/10 10:00:27;;;;;;;17.17;12.95;;;;;;;23.19;62.70;100216.81;8548188;34;20646;-72
2021/09/10 10:05:48;;;;;;;16.40;13.68;;;;;;;21.96;66.69;100220.69;8548395;34;20533;-71
2021/09/10 10:10:54;;;;;;;17.75;12.82;;;;;;;21.82;67.49;100220.63;8548005;33;20458;-71
2021/09/10 10:15:57;;;;;;;19.05;13.82;;;;;;;22.35;65.52;100217.25;8547065;33;20260;-71
2021/09/10 10:21:50;;;;;;;18.08;13.90;;;;;;;22.66;63.83;100216.75;8545720;33;20247;-71
2021/09/10 10:26:54;;;;;;;17.70;14.00;;;;;;;22.50;64.77;100209.78;8543883;33;20165;-71
2021/09/10 10:32:05;;;;;;;18.23;13.13;;;;;;;23.44;62.25;100214.25;8547801;33;20196;-72
2021/09/10 10:37:42;;;;;;;16.15;13.38;;;;;;;23.69;61.22;100202.59;8547577;33;20189;-71
2021/09/10 10:42:58;;;;;;;19.63;14.52;;;;;;;24.47;58.57;100193.47;8548233;33;20206;-72
2021/09/10 10:48:01;;;;;;;17.13;13.45;;;;;;;25.09;56.70;100190.91;8547026;33;20177;-72
2021/09/10 10:53:05;;;;;;;15.57;12.23;;;;;;;25.46;56.67;100196.50;8547357;33;20285;-72
2021/09/10 10:58:22;;;;;;;16.85;13.52;;;;;;;24.80;57.69;100193.25;8546967;33;20559;-72
2021/09/10 11:03:33;;;;;;;14.50;12.02;;;;;;;24.26;58.05;100187.22;8547725;33;20189;-72
2021/09/10 11:08:43;;;;;;;14.80;11.88;;;;;;;25.55;55.53;100181.38;8547191;33;20190;-72
2021/09/10 11:13:46;;;;;;;12.65;11.10;;;;;;;26.20;52.84;100170.66;8547038;33;20602;-72
2021/09/10 11:18:50;;;;;;;11.63;9.52;;;;;;;26.12;53.49;100168.22;8546401;33;20442;-72
2021/09/10 11:23:54;;;;;;;11.25;10.05;;;;;;;26.35;52.27;100164.75;8546473;33;20244;-72
2021/09/10 11:29:12;;;;;;;11.80;10.57;;;;;;;25.15;55.54;100176.25;8544821;33;20383;-72
2021/09/10 11:34:35;;;;;;;10.00;8.50;;;;;;;25.85;52.64;100168.56;8543756;33;20439;-72
2021/09/10 11:39:45;;;;;;;9.45;8.45;;;;;;;26.37;51.85;100161.78;8545501;33;20285;-72
2021/09/10 11:45:08;;;;;;;10.75;8.93;;;;;;;27.12;50.52;100155.69;8546134;34;20185;-73
2021/09/10 11:50:12;;;;;;;8.60;7.70;;;;;;;27.23;50.14;100157.59;8546498;34;20596;-72
2021/09/10 11:55:20;;;;;;;9.80;7.90;;;;;;;27.95;47.61;100162.81;8543368;34;20177;-71
2021/09/10 12:00:25;;;;;;;8.77;7.78;;;;;;;26.63;49.51;100142.09;8545627;34;20558;-73
2021/09/10 12:05:29;;;;;;;9.05;8.15;;;;;;;26.98;48.71;100138.56;8544535;33;20191;-73
2021/09/10 12:10:35;;;;;;;9.98;6.90;;;;;;;25.85;54.00;100135.53;8544330;33;20313;-73
2021/09/10 12:15:41;;;;;;;9.82;8.13;;;;;;;24.28;61.43;100140.34;8544063;33;20178;-72
2021/09/10 12:20:54;;;;;;;10.07;7.00;;;;;;;24.53;58.24;100132.19;8545170;33;20189;-73
2021/09/10 12:26:03;;;;;;;9.23;7.55;;;;;;;26.21;54.56;100119.19;8544338;33;20221;-73
2021/09/10 12:31:11;;;;;;;9.25;7.70;;;;;;;27.98;49.54;100115.44;8544928;33;20438;-73
2021/09/10 12:36:17;;;;;;;8.48;7.32;;;;;;;26.77;52.10;100120.69;8544310;33;20181;-73
2021/09/10 12:41:22;;;;;;;8.52;7.60;;;;;;;25.01;54.90;100116.97;8544854;33;20247;-73
2021/09/10 12:46:26;;;;;;;7.70;6.93;;;;;;;24.61;56.94;100109.09;8542465;33;20276;-73
2021/09/10 12:51:30;;;;;;;10.70;8.38;;;;;;;24.03;57.00;100118.34;8542480;33;21031;-73
2021/09/10 12:56:39;;;;;;;9.63;8.43;;;;;;;23.30;61.60;100115.84;8549802;33;20182;-72
2021/09/10 13:01:44;;;;;;;7.35;6.63;;;;;;;22.38;63.53;100118.38;8544230;34;20253;-73
2021/09/10 13:06:48;;;;;;;8.50;3.50;;;;;;;16.83;92.66;100154.88;8543737;34;20225;-74
2021/09/10 13:11:52;;;;;;;18.60;1.88;;;;;;;15.86;100.00;100156.44;8544789;34;20193;-73
2021/09/10 13:16:57;;;;;;;0.40;0.40;;;;;;;16.86;100.00;100159.09;8543471;34;20185;-74
2021/09/10 13:22:00;;;;;;;1.00;0.88;;;;;;;17.37;100.00;100125.28;8544040;34;20543;-73
2021/09/10 13:27:05;;;;;;;0.30;0.30;;;;;;;17.56;100.00;100139.47;8543610;34;20280;-74
2021/09/10 13:32:09;;;;;;;0.30;0.30;;;;;;;17.43;100.00;100149.00;8545487;34;20206;-73
2021/09/10 13:37:12;;;;;;;0.52;0.52;;;;;;;17.38;99.04;100154.13;8541976;33;21038;-74
2021/09/10 13:42:24;;;;;;;1.23;1.15;;;;;;;16.78;99.34;100162.66;8539446;33;20185;-73
2021/09/10 13:47:28;;;;;;;0.65;0.65;;;;;;;16.56;98.98;100175.03;8540900;33;20193;-73
2021/09/10 13:52:31;;;;;;;0.47;0.47;;;;;;;16.14;100.00;100184.09;8541286;33;20997;-74
2021/09/10 13:57:36;;;;;;;0.38;0.38;;;;;;;16.00;100.00;100190.16;8540885;33;20540;-73
2021/09/10 14:02:40;;;;;;;0.35;0.35;;;;;;;15.96;100.00;100211.28;8538247;33;20182;-73
2021/09/10 14:07:45;;;;;;;2.10;1.30;;;;;;;15.31;100.00;100189.31;8541769;33;20385;-73
2021/09/10 14:12:49;;;;;;;0.47;0.47;;;;;;;15.23;100.00;100196.34;8546308;33;20178;-74
2021/09/10 14:17:53;;;;;;;0.85;0.85;;;;;;;15.14;100.00;100182.91;8548533;33;20695;-74
2021/09/10 14:22:56;;;;;;;0.60;0.60;;;;;;;15.20;100.00;100169.63;8547177;33;20230;-74
2021/09/10 14:28:01;;;;;;;0.30;0.30;;;;;;;15.45;100.00;100156.25;8546794;33;20443;-74
2021/09/10 14:33:04;;;;;;;0.75;0.75;;;;;;;15.55;100.00;100157.00;8543783;33;20667;-75
2021/09/10 14:38:08;;;;;;;0.30;0.30;;;;;;;15.82;100.00;100144.22;8547719;33;21853;-75
2021/09/10 14:43:13;;;;;;;0.28;0.28;;;;;;;16.29;100.00;100132.81;8547601;33;20189;-75
2021/09/10 14:48:16;;;;;;;0.57;0.57;;;;;;;16.64;100.00;100122.69;8547927;33;20189;-74
2021/09/10 14:53:19;;;;;;;8.60;6.32;;;;;;;17.01;99.35;100122.97;8549257;33;20220;-74
2021/09/10 14:58:25;;;;;;;9.68;6.85;;;;;;;17.15;99.21;100117.91;8550286;33;20198;-75
2021/09/10 15:03:28;;;;;;;9.13;7.25;;;;;;;17.58;99.46;100108.41;8545982;33;20659;-74
2021/09/10 15:08:31;;;;;;;9.85;7.85;;;;;;;17.92;99.17;100108.03;8549342;33;20289;-74
2021/09/10 15:13:36;;;;;;;9.50;8.23;;;;;;;18.18;98.83;100116.91;8548222;33;20147;-74
2021/09/10 15:18:40;;;;;;;11.60;10.18;;;;;;;18.22;98.41;100124.53;8544087;33;20190;-74
2021/09/10 15:23:43;;;;;;;12.82;10.38;;;;;;;18.31;97.26;100119.88;8544129;33;20194;-73
2021/09/10 15:28:47;;;;;;;12.77;10.55;;;;;;;18.41;96.94;100114.22;8544752;34;20285;-74
2021/09/10 15:33:50;;;;;;;14.25;11.00;;;;;;;18.42;96.89;100121.34;8546183;34;20177;-74
2021/09/10 15:38:53;;;;;;;12.32;10.23;;;;;;;18.31;97.46;100136.19;8545796;34;20159;-73
2021/09/10 15:43:58;;;;;;;13.38;9.65;;;;;;;18.50;96.99;100148.47;8546080;34;20640;-74
2021/09/10 15:49:01;;;;;;;13.35;9.20;;;;;;;18.34;96.28;100171.16;8545761;33;20679;-73
2021/09/10 15:54:04;;;;;;;11.10;8.23;;;;;;;18.39;96.02;100157.88;8544067;33;20247;-73
2021/09/10 15:59:29;;;;;;;8.88;7.32;;;;;;;18.25;95.48;100166.81;8557147;33;20154;-73
2021/09/10 16:04:32;;;;;;;8.57;7.20;;;;;;;17.89;95.04;100159.19;8542579;33;20257;-73
2021/09/10 16:09:35;;;;;;;10.35;8.15;;;;;;;17.96;96.11;100162.88;8543837;33;20247;-73
2021/09/10 16:14:40;;;;;;;11.27;8.25;;;;;;;17.74;96.10;100158.22;8545418;34;20683;-73
2021/09/10 16:19:43;;;;;;;10.50;9.02;;;;;;;17.47;96.69;100166.66;8543465;33;20687;-73
2021/09/10 16:24:47;;;;;;;0.75;0.75;;;;;;;17.36;96.56;100160.75;8543264;33;20292;-74
2021/09/10 16:29:51;;;;;;;1.05;1.05;;;;;;;17.30;97.05;100170.44;8543112;33;20440;-73
2021/09/10 16:34:54;;;;;;;0.60;0.60;;;;;;;17.35;96.64;100164.47;8544142;34;20197;-74
2021/09/10 16:39:57;;;;;;;0.90;0.90;;;;;;;17.65;97.38;100154.72;8543590;34;20655;-74
2021/09/10 16:45:02;;;;;;;2.05;1.73;;;;;;;17.79;97.17;100156.69;8543573;34;20675;-74
2021/09/10 16:50:07;;;;;;;0.60;0.60;;;;;;;17.71;96.28;100164.84;8543079;34;20501;-74
2021/09/10 16:55:10;;;;;;;16.40;10.18;;;;;;;17.14;95.68;100222.03;8543152;34;20211;-74
2021/09/10 17:00:15;;;;;;;16.73;10.40;;;;;;;17.14;96.50;100200.31;8544366;34;20437;-74
2021/09/10 17:05:18;;;;;;;9.07;7.03;;;;;;;16.74;96.85;100193.88;8544380;34;20593;-74
2021/09/10 17:10:21;;;;;;;0.90;0.80;;;;;;;16.72;96.25;100187.75;8544561;34;20169;-75
2021/09/10 17:15:26;;;;;;;1.55;0.85;;;;;;;17.08;96.88;100206.41;8542931;33;20268;-75
2021/09/10 17:20:29;;;;;;;1.20;1.10;;;;;;;17.05;95.83;100221.16;8542507;33;20583;-75
2021/09/10 17:25:32;;;;;;;1.27;0.80;;;;;;;16.99;95.73;100221.84;8544077;33;20185;-74
2021/09/10 17:30:36;;;;;;;1.38;1.27;;;;;;;16.96;95.83;100228.47;8542714;33;20187;-74
2021/09/10 17:35:39;;;;;;;1.17;1.15;;;;;;;16.77;95.29;100221.50;8543687;33;20158;-74
2021/09/10 17:40:42;;;;;;;8.50;6.75;;;;;;;16.63;95.18;100216.75;8543989;33;20335;-74
2021/09/10 17:45:47;;;;;;;7.88;6.32;;;;;;;16.63;95.18;100221.31;8547554;33;20607;-75
2021/09/10 17:50:51;;;;;;;10.30;7.30;;;;;;;16.60;95.48;100225.22;8547691;33;20529;-73
2021/09/10 17:55:54;;;;;;;12.48;8.65;;;;;;;16.80;96.14;100231.16;8547202;33;20212;-73
2021/09/10 18:01:00;;;;;;;11.60;7.90;;;;;;;16.74;94.77;100235.41;8548526;34;25788;-74
2021/09/10 18:06:04;;;;;;;12.13;8.00;;;;;;;16.65;94.94;100225.56;8548098;34;20186;-74
2021/09/10 18:11:07;;;;;;;11.02;8.13;;;;;;;16.66;95.06;100231.84;8548490;34;20556;-74
2021/09/10 18:16:12;;;;;;;11.32;8.77;;;;;;;16.68;95.03;100229.81;8548548;34;20678;-73
2021/09/10 18:21:15;;;;;;;10.95;8.18;;;;;;;16.80;95.65;100232.00;8548637;34;20135;-73
2021/09/10 18:26:18;;;;;;;10.63;8.73;;;;;;;16.88;95.73;100238.47;8546784;34;22158;-73
2021/09/10 18:31:23;;;;;;;14.57;10.13;;;;;;;16.93;95.20;100245.06;8546480;33;20290;-73
2021/09/10 18:36:26;;;;;;;16.98;11.77;;;;;;;16.99;95.48;100249.81;8547170;33;20252;-73
2021/09/10 18:41:29;;;;;;;18.40;11.57;;;;;;;17.03;94.84;100259.34;8546826;33;20205;-73
2021/09/10 18:46:36;;;;;;;14.45;9.70;;;;;;;16.89;94.92;100268.13;8547088;33;20193;-72
2021/09/10 18:51:39;;;;;;;10.55;7.78;;;;;;;16.89;94.83;100273.53;8569555;33;20569;-72
2021/09/10 18:56:42;;;;;;;12.85;8.77;;;;;;;17.03;95.34;100280.16;8578034;33;20506;-72
2021/09/10 19:01:47;;;;;;;10.18;7.75;;;;;;;17.09;94.92;100279.50;8555531;33;21867;-73
2021/09/10 19:06:51;;;;;;;18.80;8.77;;;;;;;16.97;94.83;100287.13;8566228;33;20225;-74
2021/09/10 19:11:54;;;;;;;0.57;0.57;;;;;;;16.96;94.91;100299.00;8578051;33;21728;-73
2021/09/10 19:16:59;;;;;;;1.58;1.10;;;;;;;16.96;95.18;100300.88;8552750;33;20287;-74
2021/09/10 19:22:03;;;;;;;2.38;1.70;;;;;;;17.10;94.83;100294.75;8558177;33;20156;-73
2021/09/10 19:27:06;;;;;;;0.52;0.52;;;;;;;17.15;94.95;100299.72;8568167;33;20245;-73
2021/09/10 19:32:11;;;;;;;0.55;0.55;;;;;;;17.08;94.75;100306.81;8546090;33;20193;-74
2021/09/10 19:37:14;;;;;;;0.68;0.68;;;;;;;17.01;94.39;100298.50;8545736;33;20248;-75
2021/09/10 19:42:17;;;;;;;0.70;0.70;;;;;;;16.91;94.67;100295.94;8568507;33;20181;-74
2021/09/10 19:47:21;;;;;;;3.60;1.38;;;;;;;17.00;94.34;100303.09;8556474;33;20239;-74
2021/09/10 19:52:24;;;;;;;0.95;0.95;;;;;;;16.94;94.64;100311.03;8543697;33;20297;-74
2021/09/10 19:57:27;;;;;;;8.38;6.47;;;;;;;16.92;94.73;100310.34;8539492;33;22318;-74
2021/09/10 20:02:32;;;;;;;14.15;10.30;;;;;;;16.96;94.61;100311.72;8543538;33;20263;-74
2021/09/10 20:07:37;;;;;;;16.90;10.75;;;;;;;16.97;95.01;100313.41;8544156;33;22048;-73
2021/09/10 20:12:41;;;;;;;14.45;11.35;;;;;;;16.89;94.92;100310.69;8545211;33;20190;-73
2021/09/10 20:17:46;;;;;;;18.95;12.00;;;;;;;17.01;94.88;100317.50;8545222;34;20169;-74
2021/09/10 20:22:49;;;;;;;18.25;12.52;;;;;;;17.03;94.81;100310.00;8545135;34;20181;-73
2021/09/10 20:27:52;;;;;;;18.75;13.18;;;;;;;17.08;94.79;100320.38;8545283;34;20154;-73
2021/09/10 20:32:58;;;;;;;17.40;13.00;;;;;;;17.04;94.58;100326.13;8545202;34;20193;-73
2021/09/10 20:38:01;;;;;;;18.80;13.95;;;;;;;17.00;94.67;100335.66;8544871;34;20541;-73
2021/09/10 20:43:04;;;;;;;23.63;15.77;;;;;;;17.04;94.44;100342.41;8545990;34;20180;-73
2021/09/10 20:48:09;;;;;;;26.20;16.23;;;;;;;17.09;94.66;100349.22;8544921;34;20159;-73
2021/09/10 20:53:13;;;;;;;26.00;16.83;;;;;;;17.17;94.66;100346.56;8545124;34;20139;-72
2021/09/10 20:58:16;;;;;;;27.40;18.38;;;;;;;17.18;94.48;100349.09;8545008;34;20190;-72
2021/09/10 21:03:20;;;;;;;26.27;18.92;;;;;;;17.20;94.64;100346.22;8545332;34;21173;-73
2021/09/10 21:08:24;;;;;;;23.63;16.45;;;;;;;17.19;94.26;100350.78;8544561;34;20238;-73
2021/09/10 21:13:27;;;;;;;25.40;17.27;;;;;;;17.16;94.60;100355.69;8545047;34;20191;-72
2021/09/10 21:18:31;;;;;;;25.55;17.20;;;;;;;17.12;94.45;100348.88;8549051;34;20227;-72
2021/09/10 21:23:34;;;;;;;25.10;17.17;;;;;;;17.09;94.48;100360.09;8547777;33;20163;-73
2021/09/10 21:28:37;;;;;;;24.50;16.45;;;;;;;17.07;94.64;100362.94;8546884;33;20540;-73
2021/09/10 21:33:42;;;;;;;24.60;16.60;;;;;;;17.03;94.30;100367.88;8548839;33;20154;-72
2021/09/10 21:38:45;;;;;;;25.83;16.75;;;;;;;17.01;94.39;100369.06;8548886;33;20182;-73
2021/09/10 21:43:48;;;;;;;24.70;17.10;;;;;;;17.00;94.69;100367.34;8549342;33;20883;-73
2021/09/10 21:48:53;;;;;;;25.33;17.20;;;;;;;17.03;94.51;100369.72;8546432;33;20240;-73
2021/09/10 21:53:56;;;;;;;29.27;18.42;;;;;;;17.01;94.28;100375.31;8546571;33;20695;-73
2021/09/10 21:58:59;;;;;;;30.05;20.40;;;;;;;17.02;94.32;100371.59;8546255;33;20185;-73
2021/09/10 22:04:04;;;;;;;30.52;19.63;;;;;;;16.99;94.62;100366.50;8545863;33;20982;-72
2021/09/10 22:09:07;;;;;;;33.03;20.63;;;;;;;16.99;94.36;100371.06;8547193;33;20186;-73
2021/09/10 22:14:10;;;;;;;31.23;20.20;;;;;;;16.89;94.67;100371.22;8546951;33;20239;-73
2021/09/10 22:19:14;;;;;;;34.30;19.73;;;;;;;16.93;94.71;100366.31;8548320;34;20687;-73
2021/09/10 22:24:20;;;;;;;32.72;20.33;;;;;;;16.95;94.38;100370.56;8547387;34;20446;-72
2021/09/10 22:29:23;;;;;;;36.10;22.70;;;;;;;16.98;94.90;100372.09;8546937;34;20178;-73
2021/09/10 22:34:27;;;;;;;33.88;20.65;;;;;;;16.98;94.49;100370.22;8546426;34;20186;-73
2021/09/10 22:39:30;;;;;;;31.67;21.77;;;;;;;16.94;94.56;100368.00;8547243;34;20211;-72
2021/09/10 22:44:33;;;;;;;36.70;21.23;;;;;;;16.95;94.45;100373.28;8546510;34;20244;-73
2021/09/10 22:49:38;;;;;;;29.45;20.38;;;;;;;16.92;94.38;100375.47;8547373;34;20601;-72
2021/09/10 22:54:41;;;;;;;29.95;19.25;;;;;;;16.81;94.44;100371.19;8546209;34;20726;-73
2021/09/10 22:59:44;;;;;;;30.13;19.50;;;;;;;16.88;94.48;100379.53;8546571;34;20654;-73
2021/09/10 23:04:48;;;;;;;27.42;18.77;;;;;;;16.87;94.70;100364.28;8546559;34;20182;-73
2021/09/10 23:09:51;;;;;;;30.60;19.38;;;;;;;16.86;94.60;100373.41;8549458;34;20194;-73
2021/09/10 23:14:54;;;;;;;32.10;20.02;;;;;;;16.82;94.21;100364.75;8546655;34;20181;-73